South Cle Elum, WA (98943)

9:59 PM PDT on October 21, 2014 (GMT -0700)
Cle Elum-Roslyn High School | Change Station
CLOSE
Current Station
Personal Weather Station
Location: Cle Elum, WA
Elevation: 2107 ft
Nearby Weather Stations

Elev 2107 ft 47.20 °N, 120.97 °W | Updated 5 minutes ago

Partly Cloudy
Partly Cloudy
41.5 °F
Feels Like 42 °F
N
0.0
Wind Variable Wind from SSW

Today
High -- | Low -- °F
--% Chance of Precip.
Yesterday
High -- | Low -- °F
Precip. -- in
7:30 AM 6:05 PM
Waning Crescent, 3% visible
Pressure 29.93 in
Visibility 10.0 miles
Clouds Clear
Windchill 42 °F
Dew Point 41 °F
Humidity 97%
Rainfall 0.02 in
Snow Depth 0 in , 0 in , 0 in
UV 0.0 out of 12
Pollen 1.40 out of 12
Air Quality Not available.
Flu Activity Sporadic
METAR KELN 220353Z AUTO 07008KT 10SM CLR 08/05 A2991 RMK AO2 SLP133 T00830050

More Conditions Fewer Conditions

Pressure 29.93 in
Visibility 10.0 miles
Clouds Clear
Windchill 42 °F
Dew Point 41 °F
Humidity 97%
Rainfall 0.02 in
Snow Depth 0 in , 0 in , 0 in
UV 0.0 out of 12
Pollen 1.40 out of 12
Air Quality Not available.
Flu Activity Sporadic
METAR KELN 220353Z AUTO 07008KT 10SM CLR 08/05 A2991 RMK AO2 SLP133 T00830050

More Conditions Fewer Conditions

10-Day Weather Forecast

Almanac

Astronomy

Oct. 21, 2014 Rise Set
Actual Time 7:30 AM PDT 6:05 PM PDT
Civil Twilight 6:59 AM PDT 6:36 PM PDT
Nautical Twilight 6:24 AM PDT 7:11 PM PDT
Astronomical Twilight 5:48 AM PDT 7:47 PM PDT
Moon 5:11 AM PDT (10/21) 5:08 PM PDT (10/21)
Length of Visible Light 11h 36m
Length of Day
10h 34m
Tomorrow will be 3m 13s shorter.
Waning Crescent, 3% of the Moon is Illuminated
Oct 22
Waning Crescent
Oct 23
New
Oct 30
First Quarter
Nov 6
Full
Nov 14
Last Quarter

Yesterday's Extremes

State Highs State Lows

Community

WunderPhotos

Upload Photos

1,763,882 photos uploaded!

Nearby

Snow Depth

Station Depth Elevation
Sasse Ridge 0 in 4200 ft
Blewett Pass 0 in 4270 ft
Stampede Pass 0 in 3860 ft
Grouse Camp 0 in 5380 ft
Meadows Pass 1 in 3500 ft

Earthquake Activity

City Distance Mag. Time & Date
No recent earthquake activity has been reported nearby.
Minimum magnitude displayed is 2.5.

Coastal Water Temperatures

Place Temperature
No Stations Reporting

Nearby Weather Stations